East Dundee, Illinois
Current Conditions -  °F | °C
As of 6:52 AM on Wednesday 22 Oct 2014 (Local Time) from KDPA Reporting Station
Clear Clear  
Wind Chill: 36°   Ceiling: Unl
Heat Index: 36°   Visibility: 7mi
Dew Point: 33°   Wind: 0mph
Humidity: 89%   Direction: NA
Pressure: 30.32"   Gusts: NA
Location:  42.1081°N, 88.3234°W
Report Text: KDPA 221152Z 00000KT 7SM CLR 02/01 A3032 RMK AO2 SLP273 T00220006 10056 20017 53011
Loading
Personal Weather Stations






























Interactive Weather Map
Tropical Storm Tracking
New forecast layout! Learn more

10-Day Weather Forecast

Advertisements
Track Severe Weather on mobile